createdAt,value
2018-11-02T00:00:07.211Z,87.93
2018-11-02T00:01:06.680Z,88.08
2018-11-02T00:02:07.723Z,88.09
2018-11-02T00:03:06.721Z,87.94
2018-11-02T00:04:07.067Z,87.78
2018-11-02T00:05:06.572Z,87.84
2018-11-02T00:06:06.946Z,88.1
2018-11-02T00:07:06.772Z,88.01
2018-11-02T00:08:06.584Z,87.73
2018-11-02T00:09:06.667Z,87.74
2018-11-02T00:10:06.772Z,87.87
2018-11-02T00:11:06.766Z,87.78
2018-11-02T00:12:07.859Z,87.66
2018-11-02T00:13:06.796Z,87.66
2018-11-02T00:14:06.737Z,87.69
2018-11-02T00:15:06.569Z,87.79
2018-11-02T00:16:06.579Z,87.63
2018-11-02T00:17:06.717Z,87.52
2018-11-02T00:18:06.969Z,87.47
2018-11-02T00:19:06.606Z,87.42
2018-11-02T00:20:06.988Z,87.29
2018-11-02T00:21:06.821Z,87.22
2018-11-02T00:22:07.511Z,87.35
2018-11-02T00:23:06.667Z,87.41
2018-11-02T00:24:06.741Z,87.53
2018-11-02T00:25:06.600Z,87.41
2018-11-02T00:26:06.654Z,87.91
2018-11-02T00:27:06.816Z,88.02
2018-11-02T00:28:06.675Z,87.87
2018-11-02T00:29:06.714Z,87.67
2018-11-02T00:30:06.677Z,87.95
2018-11-02T00:31:06.827Z,88.82
2018-11-02T00:32:07.481Z,88.89
2018-11-02T00:33:06.910Z,88.71
2018-11-02T00:34:06.647Z,88.73
2018-11-02T00:35:06.654Z,88.54
2018-11-02T00:36:06.775Z,88.34
2018-11-02T00:37:06.790Z,88.27
2018-11-02T00:38:06.826Z,88.55
2018-11-02T00:39:06.939Z,88.35
2018-11-02T00:40:06.607Z,88.37
2018-11-02T00:41:06.879Z,88.62
2018-11-02T00:42:06.625Z,89.02
2018-11-02T00:43:07.757Z,90.26
2018-11-02T00:44:07.077Z,89.77
2018-11-02T00:45:06.607Z,90.03
2018-11-02T00:46:06.762Z,89.76
2018-11-02T00:47:06.798Z,89.59
2018-11-02T00:48:06.640Z,89.34
2018-11-02T00:49:06.700Z,89.29
2018-11-02T00:50:06.808Z,89.17
2018-11-02T00:51:06.681Z,88.99
2018-11-02T00:52:06.621Z,88.99
2018-11-02T00:53:07.535Z,88.82
2018-11-02T00:54:06.643Z,88.49
2018-11-02T00:55:06.875Z,88.33
2018-11-02T00:56:06.538Z,88.36
2018-11-02T00:57:06.585Z,88.27
2018-11-02T00:58:06.528Z,88.18
2018-11-02T00:59:06.635Z,88.29
2018-11-02T01:00:06.876Z,88.21
2018-11-02T01:01:06.904Z,88.2
2018-11-02T01:02:06.626Z,88.38
2018-11-02T01:03:06.977Z,88.2
2018-11-02T01:04:06.910Z,88.59
2018-11-02T01:05:06.540Z,88.64
2018-11-02T01:06:06.532Z,88.62
2018-11-02T01:07:06.533Z,88.59
2018-11-02T01:08:06.528Z,88.54
2018-11-02T01:09:06.710Z,88.35
2018-11-02T01:10:06.515Z,88.25
2018-11-02T01:11:06.539Z,88.71
2018-11-02T01:12:06.532Z,88.63
2018-11-02T01:13:07.131Z,88.42
2018-11-02T01:14:06.507Z,88.63
2018-11-02T01:15:06.573Z,88.66
2018-11-02T01:16:06.481Z,88.49
2018-11-02T01:17:06.526Z,88.34
2018-11-02T01:18:06.490Z,88.32
2018-11-02T01:19:06.667Z,88.14
2018-11-02T01:20:06.521Z,88.14
2018-11-02T01:21:06.631Z,88.28
2018-11-02T01:22:06.682Z,88.67
2018-11-02T01:23:06.493Z,88.67
2018-11-02T01:24:06.479Z,88.52
2018-11-02T01:25:06.543Z,88.4
2018-11-02T01:26:06.588Z,88.47
2018-11-02T01:27:06.727Z,88.31
2018-11-02T01:28:06.490Z,88.21
2018-11-02T01:29:06.657Z,88.28
2018-11-02T01:30:06.705Z,88.24
2018-11-02T01:31:06.784Z,88.14
2018-11-02T01:32:06.745Z,88.19
2018-11-02T01:33:06.521Z,88.22
2018-11-02T01:34:07.601Z,88.16
2018-11-02T01:35:06.511Z,88.33
2018-11-02T01:36:06.515Z,88.05
2018-11-02T01:37:06.514Z,88.04
2018-11-02T01:38:06.801Z,88.18
2018-11-02T01:39:06.476Z,88.26
2018-11-02T01:40:06.528Z,88.04
2018-11-02T01:41:06.560Z,87.91
2018-11-02T01:42:06.617Z,87.92
2018-11-02T01:43:06.630Z,87.71
2018-11-02T01:44:07.666Z,87.64
2018-11-02T01:45:06.491Z,87.65
2018-11-02T01:46:06.554Z,87.89
2018-11-02T01:47:06.502Z,87.76
2018-11-02T01:48:06.475Z,87.86
2018-11-02T01:49:06.468Z,87.7
2018-11-02T01:50:06.452Z,87.63
2018-11-02T01:51:06.825Z,87.71
2018-11-02T01:52:07.282Z,87.75
2018-11-02T01:53:06.898Z,87.88
2018-11-02T01:54:07.057Z,87.84
2018-11-02T01:55:06.475Z,87.85
2018-11-02T01:56:06.448Z,87.75
2018-11-02T01:57:06.419Z,87.77
2018-11-02T01:58:06.631Z,87.69
2018-11-02T01:59:06.528Z,87.64
2018-11-02T02:00:06.466Z,88.04
2018-11-02T02:01:06.468Z,88.39
2018-11-02T02:02:06.418Z,88.31
2018-11-02T02:03:06.592Z,88.65
2018-11-02T02:04:06.474Z,88.8
2018-11-02T02:05:06.456Z,88.62
2018-11-02T02:06:06.430Z,88.47
2018-11-02T02:07:07.244Z,88.17
2018-11-02T02:08:06.457Z,88.24
2018-11-02T02:09:06.517Z,88.24
2018-11-02T02:10:06.462Z,88.15
2018-11-02T02:11:07.204Z,88.08
2018-11-02T02:12:06.453Z,88.18
2018-11-02T02:13:06.892Z,88.33
2018-11-02T02:14:06.504Z,88.29
2018-11-02T02:15:07.467Z,88.52
2018-11-02T02:16:06.563Z,88.46
2018-11-02T02:17:06.793Z,88.2
2018-11-02T02:18:06.500Z,88.19
2018-11-02T02:19:06.575Z,88.35
2018-11-02T02:20:06.507Z,88.38
2018-11-02T02:21:06.428Z,88.31
2018-11-02T02:22:06.433Z,88.13
2018-11-02T02:23:06.487Z,88.08
2018-11-02T02:24:06.505Z,88.55
2018-11-02T02:25:07.230Z,88.98
2018-11-02T02:26:06.664Z,88.84
2018-11-02T02:27:06.494Z,88.88
2018-11-02T02:28:06.413Z,89.16
2018-11-02T02:29:06.552Z,89.43
2018-11-02T02:30:06.612Z,89.52
2018-11-02T02:31:06.464Z,89.31
2018-11-02T02:32:06.572Z,89.3
2018-11-02T02:33:06.362Z,89.33
2018-11-02T02:34:06.815Z,89.39
2018-11-02T02:35:06.592Z,89.31
2018-11-02T02:36:06.545Z,89.44
2018-11-02T02:37:06.522Z,89.18
2018-11-02T02:38:06.643Z,89.16
2018-11-02T02:39:06.379Z,88.92
2018-11-02T02:40:06.774Z,88.81
2018-11-02T02:41:06.678Z,88.83
2018-11-02T02:42:06.328Z,88.84
2018-11-02T02:43:06.358Z,88.83
2018-11-02T02:44:06.828Z,88.64
2018-11-02T02:45:06.392Z,88.68
2018-11-02T02:46:06.359Z,88.71
2018-11-02T02:47:06.370Z,88.67
2018-11-02T02:48:06.404Z,88.65
2018-11-02T02:49:06.473Z,88.43
2018-11-02T02:50:06.536Z,88.38
2018-11-02T02:51:06.390Z,88.31
2018-11-02T02:52:06.353Z,88.09
2018-11-02T02:53:06.401Z,88.14
2018-11-02T02:54:06.349Z,88
2018-11-02T02:55:06.486Z,88.01
2018-11-02T02:56:07.444Z,88.22
2018-11-02T02:57:06.366Z,88.19
2018-11-02T02:58:06.575Z,88.13
2018-11-02T02:59:06.368Z,88.1
2018-11-02T03:00:06.390Z,87.99
2018-11-02T03:01:06.768Z,87.86
2018-11-02T03:02:06.585Z,87.82
2018-11-02T03:03:06.633Z,87.74
2018-11-02T03:04:06.474Z,87.67
2018-11-02T03:05:06.513Z,87.65
2018-11-02T03:06:07.513Z,87.66
2018-11-02T03:07:06.355Z,87.65
2018-11-02T03:08:06.536Z,87.59
2018-11-02T03:09:06.512Z,87.63
2018-11-02T03:10:06.425Z,87.63
2018-11-02T03:11:07.939Z,87.76
2018-11-02T03:12:06.482Z,87.82
2018-11-02T03:13:06.394Z,87.9
2018-11-02T03:14:06.310Z,88
2018-11-02T03:15:06.447Z,87.92
2018-11-02T03:16:07.170Z,87.94
2018-11-02T03:17:06.323Z,88
2018-11-02T03:18:06.494Z,87.98
2018-11-02T03:19:06.373Z,88.12
2018-11-02T03:20:06.490Z,87.95
2018-11-02T03:21:06.377Z,88.27
2018-11-02T03:22:06.496Z,88.24
2018-11-02T03:23:06.296Z,88.37
2018-11-02T03:24:06.412Z,88.43
2018-11-02T03:25:06.741Z,88.76
2018-11-02T03:26:07.341Z,88.92
2018-11-02T03:27:06.357Z,88.87
2018-11-02T03:28:06.399Z,88.96
2018-11-02T03:29:06.360Z,89.06
2018-11-02T03:30:06.643Z,89.18
2018-11-02T03:31:06.612Z,89.1
2018-11-02T03:32:06.726Z,89.32
2018-11-02T03:33:06.422Z,89.32
2018-11-02T03:34:06.446Z,89.59
2018-11-02T03:35:06.300Z,89.56
2018-11-02T03:36:07.205Z,89.87
2018-11-02T03:37:06.323Z,89.88
2018-11-02T03:38:06.357Z,89.85
2018-11-02T03:39:06.450Z,89.7
2018-11-02T03:40:06.458Z,89.76
2018-11-02T03:41:06.354Z,89.51
2018-11-02T03:42:06.279Z,89.33
2018-11-02T03:43:06.304Z,89.28
2018-11-02T03:44:06.349Z,89.39
2018-11-02T03:45:06.289Z,89.27
2018-11-02T03:46:07.478Z,89.22
2018-11-02T03:47:06.411Z,89.2
2018-11-02T03:48:06.314Z,89.47
2018-11-02T03:49:06.526Z,89.83
2018-11-02T03:50:06.361Z,89.76
2018-11-02T03:51:06.428Z,90.04
2018-11-02T03:52:06.401Z,89.97
2018-11-02T03:53:06.399Z,90.03
2018-11-02T03:54:06.272Z,90.09
2018-11-02T03:55:06.369Z,90.14
2018-11-02T03:56:07.161Z,90.32
2018-11-02T03:57:06.339Z,90.05
2018-11-02T03:58:06.364Z,89.92
2018-11-02T03:59:06.376Z,90.06
2018-11-02T04:00:06.327Z,90.19
2018-11-02T04:01:06.390Z,90.48
2018-11-02T04:02:06.309Z,90.65
2018-11-02T04:03:06.283Z,90.63
2018-11-02T04:04:06.591Z,90.76
2018-11-02T04:05:06.442Z,90.78
2018-11-02T04:06:06.350Z,91.13
2018-11-02T04:07:06.400Z,91.36
2018-11-02T04:08:06.238Z,91.39
2018-11-02T04:09:06.282Z,91.39
2018-11-02T04:10:06.365Z,91.48
2018-11-02T04:11:06.326Z,91.4
2018-11-02T04:12:06.339Z,91.02
2018-11-02T04:13:06.246Z,90.67
2018-11-02T04:14:06.250Z,90.83
2018-11-02T04:15:06.233Z,90.66
2018-11-02T04:16:06.234Z,91
2018-11-02T04:17:06.322Z,90.87
2018-11-02T04:18:06.283Z,90.89
2018-11-02T04:19:06.263Z,90.7
2018-11-02T04:20:06.303Z,90.73
2018-11-02T04:21:06.273Z,90.66
2018-11-02T04:22:06.242Z,90.61
2018-11-02T04:23:06.210Z,90.65
2018-11-02T04:24:06.329Z,90.66
2018-11-02T04:25:06.271Z,90.7
2018-11-02T04:26:06.357Z,90.68
2018-11-02T04:27:07.360Z,90.66
2018-11-02T04:28:06.273Z,90.53
2018-11-02T04:29:06.222Z,90.37
2018-11-02T04:30:06.232Z,90.67
2018-11-02T04:31:07.151Z,91.17
2018-11-02T04:32:06.415Z,91.09
2018-11-02T04:33:06.389Z,91.16
2018-11-02T04:34:06.273Z,90.86
2018-11-02T04:35:06.368Z,90.66
2018-11-02T04:36:06.377Z,90.45
2018-11-02T04:37:07.127Z,90.62
2018-11-02T04:38:06.369Z,90.39
2018-11-02T04:39:06.745Z,90.59
2018-11-02T04:40:06.269Z,90.57
2018-11-02T04:41:06.344Z,90.64
2018-11-02T04:42:06.491Z,90.44
2018-11-02T04:43:06.184Z,90.44
2018-11-02T04:44:06.435Z,90.39
2018-11-02T04:45:06.499Z,90.46
2018-11-02T04:46:06.270Z,90.52
2018-11-02T04:47:06.627Z,90.52
2018-11-02T04:48:06.183Z,90.47
2018-11-02T04:49:06.339Z,90.36
2018-11-02T04:50:06.255Z,90.61
2018-11-02T04:51:07.077Z,90.6
2018-11-02T04:52:06.558Z,90.47
2018-11-02T04:53:06.358Z,90.44
2018-11-02T04:54:06.336Z,90.79
2018-11-02T04:55:06.161Z,90.89
2018-11-02T04:56:07.524Z,90.78
2018-11-02T04:57:06.480Z,90.7
2018-11-02T04:58:06.287Z,90.83
2018-11-02T04:59:06.218Z,90.73
2018-11-02T05:00:06.384Z,90.77
2018-11-02T05:01:06.268Z,90.63
2018-11-02T05:02:06.307Z,90.45
2018-11-02T05:03:06.220Z,90.38
2018-11-02T05:04:06.195Z,90.4
2018-11-02T05:05:06.226Z,90.15
2018-11-02T05:06:06.137Z,90
2018-11-02T05:07:06.214Z,90.24
2018-11-02T05:08:08.679Z,90.17
2018-11-02T05:09:06.247Z,90.24
2018-11-02T05:10:06.510Z,90.1
2018-11-02T05:11:06.400Z,90.08
2018-11-02T05:12:06.178Z,90.08
2018-11-02T05:13:06.242Z,90.16
2018-11-02T05:14:06.257Z,90.01
2018-11-02T05:15:06.161Z,89.96
2018-11-02T05:16:06.308Z,89.72
2018-11-02T05:17:06.416Z,89.69
2018-11-02T05:18:07.218Z,89.72
2018-11-02T05:19:06.137Z,90.14
2018-11-02T05:20:06.339Z,90.17
2018-11-02T05:21:06.600Z,90.05
2018-11-02T05:22:06.161Z,89.82
2018-11-02T05:23:06.387Z,89.91
2018-11-02T05:24:06.213Z,89.87
2018-11-02T05:25:06.301Z,89.9
2018-11-02T05:26:07.046Z,89.75
2018-11-02T05:27:06.157Z,89.64
2018-11-02T05:28:07.187Z,89.69
2018-11-02T05:29:06.160Z,89.76
2018-11-02T05:30:06.128Z,89.62
2018-11-02T05:31:06.224Z,89.65
2018-11-02T05:32:06.125Z,89.8
2018-11-02T05:33:06.302Z,89.65
2018-11-02T05:34:06.144Z,89.68
2018-11-02T05:35:06.287Z,89.6
2018-11-02T05:36:06.264Z,89.68
2018-11-02T05:37:06.122Z,89.83
2018-11-02T05:38:06.154Z,89.74
2018-11-02T05:39:06.147Z,89.62
2018-11-02T05:40:06.483Z,89.78
2018-11-02T05:41:06.092Z,89.71
2018-11-02T05:42:06.103Z,90
2018-11-02T05:43:06.133Z,89.95
2018-11-02T05:44:06.126Z,90.07
2018-11-02T05:45:06.194Z,90.27
2018-11-02T05:46:06.126Z,90.01
2018-11-02T05:47:06.343Z,90.01
2018-11-02T05:48:06.080Z,90.15
2018-11-02T05:49:06.139Z,89.92
2018-11-02T05:50:06.129Z,89.78
2018-11-02T05:51:06.191Z,89.69
2018-11-02T05:52:06.185Z,89.62
2018-11-02T05:53:06.151Z,89.71
2018-11-02T05:54:06.840Z,89.52
2018-11-02T05:55:06.162Z,89.49
2018-11-02T05:56:06.207Z,89.77
2018-11-02T05:57:06.445Z,89.67
2018-11-02T05:58:06.069Z,89.56
2018-11-02T05:59:07.818Z,89.54
2018-11-02T06:00:06.332Z,89.43
2018-11-02T06:01:06.062Z,89.32
2018-11-02T06:02:06.073Z,89.3
2018-11-02T06:03:06.111Z,89.23
2018-11-02T06:04:06.357Z,89.15
2018-11-02T06:05:06.072Z,89.12
2018-11-02T06:06:06.158Z,89.16
2018-11-02T06:07:06.137Z,89.4
2018-11-02T06:08:07.020Z,89.65
2018-11-02T06:09:07.069Z,89.98
2018-11-02T06:10:06.085Z,89.81
2018-11-02T06:11:06.145Z,89.66
2018-11-02T06:12:06.179Z,89.66
2018-11-02T06:13:06.546Z,89.71
2018-11-02T06:14:06.314Z,89.84
2018-11-02T06:15:06.079Z,89.9
2018-11-02T06:16:06.197Z,89.69
2018-11-02T06:17:06.252Z,89.78
2018-11-02T06:18:06.055Z,89.58
2018-11-02T06:19:06.690Z,89.44
2018-11-02T06:20:06.059Z,89.38
2018-11-02T06:21:06.091Z,89.32
2018-11-02T06:22:06.036Z,89.27
2018-11-02T06:23:06.148Z,89.19
2018-11-02T06:24:06.482Z,89.1
2018-11-02T06:25:06.081Z,89.01
2018-11-02T06:26:06.037Z,88.78
2018-11-02T06:27:06.046Z,88.71
2018-11-02T06:28:06.468Z,88.56
2018-11-02T06:29:06.182Z,88.32
2018-11-02T06:30:06.016Z,88.01
2018-11-02T06:31:06.070Z,88
2018-11-02T06:32:06.178Z,87.8
2018-11-02T06:33:06.121Z,88
2018-11-02T06:34:06.206Z,88.17
2018-11-02T06:35:06.007Z,88.16
2018-11-02T06:36:06.066Z,88.29
2018-11-02T06:37:06.179Z,88.29
2018-11-02T06:38:06.291Z,88.22
2018-11-02T06:39:06.198Z,88.17
2018-11-02T06:40:07.292Z,88.01
2018-11-02T06:41:06.253Z,87.94
2018-11-02T06:42:06.119Z,87.78
2018-11-02T06:43:06.637Z,87.71
2018-11-02T06:44:06.246Z,87.77
2018-11-02T06:45:06.768Z,87.95
2018-11-02T06:46:06.074Z,88
2018-11-02T06:47:06.014Z,87.95
2018-11-02T06:48:06.091Z,87.98
2018-11-02T06:49:06.048Z,88.05
2018-11-02T06:50:06.343Z,88.05
2018-11-02T06:51:06.885Z,88.08
2018-11-02T06:52:05.984Z,88
2018-11-02T06:53:06.156Z,87.96
2018-11-02T06:54:06.176Z,87.7
2018-11-02T06:55:06.429Z,87.71
2018-11-02T06:56:06.077Z,87.74
2018-11-02T06:57:06.326Z,87.76
2018-11-02T06:58:06.125Z,87.75
2018-11-02T06:59:06.696Z,87.78
2018-11-02T07:00:08.192Z,87.8
2018-11-02T07:01:06.487Z,87.81
2018-11-02T07:02:06.157Z,88.04
2018-11-02T07:03:06.003Z,87.79
2018-11-02T07:04:06.007Z,88.03
2018-11-02T07:05:06.180Z,87.84
2018-11-02T07:06:06.167Z,88.11
2018-11-02T07:07:06.613Z,88.13
2018-11-02T07:08:07.379Z,88.32
2018-11-02T07:09:06.210Z,88.29
2018-11-02T07:10:06.003Z,88.28
2018-11-02T07:11:07.107Z,88.46
2018-11-02T07:12:06.057Z,88.6
2018-11-02T07:13:06.149Z,88.49
2018-11-02T07:14:06.009Z,88.6
2018-11-02T07:15:06.309Z,88.53
2018-11-02T07:16:06.039Z,88.59
2018-11-02T07:17:06.475Z,88.59
2018-11-02T07:18:06.030Z,88.61
2018-11-02T07:19:06.069Z,89.09
2018-11-02T07:20:06.006Z,89.28
2018-11-02T07:21:06.527Z,89.27
2018-11-02T07:22:05.955Z,89.02
2018-11-02T07:23:06.140Z,88.9
2018-11-02T07:24:06.277Z,89.19
2018-11-02T07:25:06.650Z,89.16
2018-11-02T07:26:06.128Z,89.28
2018-11-02T07:27:06.143Z,89.47
2018-11-02T07:28:05.976Z,89.15
2018-11-02T07:29:05.965Z,89.55
2018-11-02T07:30:05.958Z,89.15
2018-11-02T07:31:06.001Z,89.38
2018-11-02T07:32:07.256Z,89.5
2018-11-02T07:33:06.104Z,89.98
2018-11-02T07:34:06.331Z,89.89
2018-11-02T07:35:06.023Z,90.17
2018-11-02T07:36:06.003Z,90.33
2018-11-02T07:37:06.953Z,90.37
2018-11-02T07:38:06.093Z,90.57
2018-11-02T07:39:05.981Z,90.37
2018-11-02T07:40:06.022Z,90.34
2018-11-02T07:41:05.993Z,90.68
2018-11-02T07:42:06.816Z,90.46
2018-11-02T07:43:06.138Z,90.12
2018-11-02T07:44:06.060Z,90.5
2018-11-02T07:45:05.957Z,90.9
2018-11-02T07:46:06.067Z,90.9
2018-11-02T07:47:05.980Z,90.87
2018-11-02T07:48:05.902Z,90.96
2018-11-02T07:49:06.144Z,90.92
2018-11-02T07:50:05.965Z,90.81
2018-11-02T07:51:06.065Z,90.53
2018-11-02T07:52:06.031Z,90.32
2018-11-02T07:53:06.225Z,90.74
2018-11-02T07:54:06.047Z,91.13
2018-11-02T07:55:06.155Z,90.91
2018-11-02T07:56:06.048Z,90.64
2018-11-02T07:57:06.018Z,91.2
2018-11-02T07:58:06.022Z,91.14
2018-11-02T07:59:06.224Z,91.33
2018-11-02T08:00:06.168Z,91.51
2018-11-02T08:01:06.073Z,91.58
2018-11-02T08:02:05.982Z,91.57
2018-11-02T08:03:07.175Z,91.69
2018-11-02T08:04:06.134Z,91.82
2018-11-02T08:05:05.969Z,91.82
2018-11-02T08:06:06.007Z,91.79
2018-11-02T08:07:06.037Z,91.69
2018-11-02T08:08:06.018Z,91.54
2018-11-02T08:09:06.019Z,91.31
2018-11-02T08:10:06.130Z,91.37
2018-11-02T08:11:06.001Z,91.32
2018-11-02T08:12:05.965Z,91.22
2018-11-02T08:13:06.839Z,91.45
2018-11-02T08:14:06.143Z,91.17
2018-11-02T08:15:05.977Z,91.7
2018-11-02T08:16:05.861Z,91.68
2018-11-02T08:17:05.876Z,91.41
2018-11-02T08:18:05.943Z,91.29
2018-11-02T08:19:07.106Z,91.17
2018-11-02T08:20:06.083Z,90.88
2018-11-02T08:21:06.100Z,90.78
2018-11-02T08:22:05.933Z,90.5
2018-11-02T08:23:06.109Z,90.79
2018-11-02T08:24:05.946Z,90.61
2018-11-02T08:25:05.854Z,90.52
2018-11-02T08:26:05.983Z,90.04
2018-11-02T08:27:05.966Z,89.96
2018-11-02T08:28:06.046Z,90.05
2018-11-02T08:29:06.151Z,90.2
2018-11-02T08:30:06.052Z,90.16
2018-11-02T08:31:06.060Z,90.1
2018-11-02T08:32:06.309Z,89.4
2018-11-02T08:33:05.864Z,89.38
2018-11-02T08:34:05.888Z,89.16
2018-11-02T08:35:05.924Z,89.09
2018-11-02T08:36:05.875Z,89.07
2018-11-02T08:37:06.136Z,88.97
2018-11-02T08:38:06.105Z,89.21
2018-11-02T08:39:05.927Z,89.28
2018-11-02T08:40:06.132Z,89.33
2018-11-02T08:41:05.939Z,89.2
2018-11-02T08:42:05.840Z,89.03
2018-11-02T08:43:06.054Z,88.99
2018-11-02T08:44:05.995Z,89.14
2018-11-02T08:45:05.976Z,89.3
2018-11-02T08:46:06.170Z,89.52
2018-11-02T08:47:05.948Z,89.4
2018-11-02T08:48:06.088Z,89.27
2018-11-02T08:49:05.920Z,89.37
2018-11-02T08:50:06.097Z,89.24
2018-11-02T08:51:05.900Z,89.25
2018-11-02T08:52:06.064Z,89.08
2018-11-02T08:53:05.848Z,89.05
2018-11-02T08:54:05.895Z,88.91
2018-11-02T08:55:06.454Z,88.44
2018-11-02T08:56:05.920Z,88.41
2018-11-02T08:57:06.168Z,88.65
2018-11-02T08:58:07.989Z,88.76
2018-11-02T08:59:06.587Z,88.74
2018-11-02T09:00:06.266Z,87.64
2018-11-02T09:01:06.078Z,87.64
2018-11-02T09:02:06.669Z,87.48
2018-11-02T09:03:06.092Z,87.69
2018-11-02T09:04:06.107Z,88.1
2018-11-02T09:05:06.463Z,88.11
2018-11-02T09:06:06.109Z,87.97
2018-11-02T09:07:05.964Z,87.84
2018-11-02T09:08:05.828Z,87.79
2018-11-02T09:09:05.967Z,87.36
2018-11-02T09:10:06.044Z,87.77
2018-11-02T09:11:05.795Z,87.62
2018-11-02T09:12:06.429Z,86.68
2018-11-02T09:13:06.363Z,86.01
2018-11-02T09:14:05.807Z,85.38
2018-11-02T09:15:06.158Z,85.64
2018-11-02T09:16:05.910Z,86.18
2018-11-02T09:17:05.964Z,86.3
2018-11-02T09:18:05.829Z,86.95
2018-11-02T09:19:05.930Z,86.33
2018-11-02T09:20:05.827Z,86.29
2018-11-02T09:21:05.856Z,86.64
2018-11-02T09:22:05.934Z,86.72
2018-11-02T09:23:06.092Z,86.67
2018-11-02T09:24:05.963Z,86.41
2018-11-02T09:25:05.811Z,86.47
2018-11-02T09:26:06.092Z,86.15
2018-11-02T09:27:06.197Z,85.99
2018-11-02T09:28:07.015Z,85.9
2018-11-02T09:29:06.078Z,85.81
2018-11-02T09:30:05.937Z,85.39
2018-11-02T09:31:05.837Z,85.24
2018-11-02T09:32:05.779Z,85.16
2018-11-02T09:33:05.788Z,85.26
2018-11-02T09:34:06.060Z,84.79
2018-11-02T09:35:06.229Z,84.92
2018-11-02T09:36:05.769Z,84.99
2018-11-02T09:37:05.825Z,85.26
2018-11-02T09:38:05.881Z,84.97
2018-11-02T09:39:06.168Z,84.54
2018-11-02T09:40:05.968Z,83.52
2018-11-02T09:41:05.836Z,83.24
2018-11-02T09:42:06.861Z,83.92
2018-11-02T09:43:06.300Z,84.05
2018-11-02T09:44:05.991Z,82.85
2018-11-02T09:45:05.770Z,81.9
2018-11-02T09:46:05.836Z,81.75
2018-11-02T09:47:06.142Z,81.76
2018-11-02T09:48:06.042Z,82.53
2018-11-02T09:49:05.856Z,82.69
2018-11-02T09:50:05.822Z,81.95
2018-11-02T09:51:05.808Z,81.82
2018-11-02T09:52:07.539Z,81.93
2018-11-02T09:53:05.775Z,82.53
2018-11-02T09:54:05.825Z,81.1
2018-11-02T09:55:05.771Z,82.12
2018-11-02T09:56:05.742Z,81.58
2018-11-02T09:57:06.161Z,81.72
2018-11-02T09:58:06.093Z,80.22
2018-11-02T09:59:06.108Z,80.01
2018-11-02T10:00:05.916Z,80.39
2018-11-02T10:01:05.773Z,81.66
2018-11-02T10:02:06.963Z,81.76
2018-11-02T10:03:05.732Z,81.86
2018-11-02T10:04:05.802Z,81.48
2018-11-02T10:05:05.839Z,81.17
2018-11-02T10:06:05.854Z,80.46
2018-11-02T10:07:05.809Z,79.77
2018-11-02T10:08:06.077Z,79.81
2018-11-02T10:09:06.254Z,79.92
2018-11-02T10:10:06.120Z,80.07
2018-11-02T10:11:05.742Z,79.99
2018-11-02T10:12:07.083Z,80.94
2018-11-02T10:13:06.167Z,80.44
2018-11-02T10:14:06.128Z,80.23
2018-11-02T10:15:06.119Z,80.3
2018-11-02T10:16:05.820Z,78.51
2018-11-02T10:17:05.826Z,78.53
2018-11-02T10:18:05.835Z,79.07
2018-11-02T10:19:05.790Z,79.82
2018-11-02T10:20:05.872Z,80.41
2018-11-02T10:21:05.785Z,80.76
2018-11-02T10:22:06.890Z,80.61
2018-11-02T10:23:05.874Z,79.32
2018-11-02T10:24:05.852Z,79.11
2018-11-02T10:25:05.847Z,79.6
2018-11-02T10:26:06.064Z,79.86
2018-11-02T10:27:05.816Z,78.81
2018-11-02T10:28:06.006Z,78.69
2018-11-02T10:29:05.877Z,79.39
2018-11-02T10:30:05.728Z,79.38
2018-11-02T10:31:05.747Z,79.92
2018-11-02T10:32:06.714Z,78.84
2018-11-02T10:33:06.220Z,79.99
2018-11-02T10:34:05.824Z,80.11
2018-11-02T10:35:05.850Z,79.95
2018-11-02T10:36:06.350Z,79.71
2018-11-02T10:37:05.757Z,79.82
2018-11-02T10:38:05.979Z,80.1
2018-11-02T10:39:05.736Z,80.24
2018-11-02T10:40:05.762Z,80.4
2018-11-02T10:41:05.710Z,78.25
2018-11-02T10:42:06.476Z,76.83
2018-11-02T10:43:05.770Z,76.24
2018-11-02T10:44:05.967Z,76.35
2018-11-02T10:45:06.479Z,76.1
2018-11-02T10:46:05.813Z,77.02
2018-11-02T10:47:05.703Z,77.16
2018-11-02T10:48:05.759Z,76.73
2018-11-02T10:49:05.995Z,76.61
2018-11-02T10:50:05.701Z,76.66
2018-11-02T10:51:05.916Z,75.66
2018-11-02T10:52:06.810Z,75.08
2018-11-02T10:53:05.707Z,75.66
2018-11-02T10:54:05.836Z,76.68
2018-11-02T10:55:05.706Z,76.52
2018-11-02T10:56:05.766Z,75.86
2018-11-02T10:57:05.815Z,76.35
2018-11-02T10:58:05.874Z,77.11
2018-11-02T10:59:05.747Z,77.06
2018-11-02T11:00:05.705Z,77.49
2018-11-02T11:01:07.333Z,77.61
2018-11-02T11:02:06.825Z,77.51
2018-11-02T11:03:05.823Z,77.65
2018-11-02T11:04:05.718Z,76.95
2018-11-02T11:05:05.675Z,76.41
2018-11-02T11:06:05.723Z,75.88
2018-11-02T11:07:05.708Z,75.53
2018-11-02T11:08:06.147Z,76.11
2018-11-02T11:09:05.653Z,74.73
2018-11-02T11:10:05.677Z,75.75
2018-11-02T11:11:08.088Z,76.09
2018-11-02T11:12:07.189Z,76.37
2018-11-02T11:13:08.878Z,75.45
2018-11-02T11:14:05.848Z,76.06
2018-11-02T11:15:05.656Z,74.81
2018-11-02T11:16:05.695Z,75.69
2018-11-02T11:17:06.056Z,75.9
2018-11-02T11:18:05.710Z,74.62
2018-11-02T11:19:05.708Z,74.54
2018-11-02T11:20:05.974Z,75.45
2018-11-02T11:21:06.053Z,74.38
2018-11-02T11:22:06.968Z,73.51
2018-11-02T11:23:05.688Z,73.04
2018-11-02T11:24:05.762Z,72.48
2018-11-02T11:25:05.654Z,72.53
2018-11-02T11:26:05.871Z,73.34
2018-11-02T11:27:05.729Z,73.7
2018-11-02T11:28:05.711Z,73.83
2018-11-02T11:29:05.938Z,73.05
2018-11-02T11:30:05.691Z,72.92
2018-11-02T11:31:05.904Z,73.34
2018-11-02T11:32:06.938Z,72.04
2018-11-02T11:33:05.761Z,72.87
2018-11-02T11:34:05.852Z,72.84
2018-11-02T11:35:05.748Z,71.03
2018-11-02T11:36:05.706Z,71.99
2018-11-02T11:37:05.671Z,72.34
2018-11-02T11:38:05.703Z,73.14
2018-11-02T11:39:05.693Z,72.12
2018-11-02T11:40:05.812Z,72.65
2018-11-02T11:41:05.778Z,72.8
2018-11-02T11:42:05.726Z,71.91
2018-11-02T11:43:05.742Z,72.07
2018-11-02T11:44:05.692Z,71.7
2018-11-02T11:45:05.751Z,70.21
2018-11-02T11:46:05.784Z,70.72
2018-11-02T11:47:05.831Z,71.53
2018-11-02T11:48:06.010Z,72.12
2018-11-02T11:49:06.685Z,71.31
2018-11-02T11:50:05.671Z,71.27
2018-11-02T11:51:05.618Z,70.83
2018-11-02T11:52:05.662Z,70.96
2018-11-02T11:53:05.805Z,69.98
2018-11-02T11:54:05.780Z,69.86
2018-11-02T11:55:05.708Z,67.68
2018-11-02T11:56:05.631Z,68.84
2018-11-02T11:57:05.729Z,69.71
2018-11-02T11:58:05.836Z,71.1
2018-11-02T11:59:05.661Z,70.41
2018-11-02T12:00:05.651Z,70.32
2018-11-02T12:01:05.998Z,70.76
2018-11-02T12:02:05.996Z,70.03
2018-11-02T12:03:05.663Z,70.31
2018-11-02T12:04:05.873Z,70.48
2018-11-02T12:05:06.527Z,69.72
2018-11-02T12:06:05.697Z,69.75
2018-11-02T12:07:05.578Z,69.83
2018-11-02T12:08:05.650Z,70.12
2018-11-02T12:09:06.042Z,70.18
2018-11-02T12:10:05.837Z,69.79
2018-11-02T12:11:05.642Z,70.62
2018-11-02T12:12:05.598Z,70.32
2018-11-02T12:13:05.946Z,70.37
2018-11-02T12:14:05.672Z,69.48
2018-11-02T12:15:05.557Z,68.65
2018-11-02T12:16:06.655Z,68.32
2018-11-02T12:17:05.569Z,68.89
2018-11-02T12:18:05.564Z,69.64
2018-11-02T12:19:05.587Z,69.4
2018-11-02T12:20:05.615Z,70.03
2018-11-02T12:21:05.659Z,70.31
2018-11-02T12:22:05.670Z,70.15
2018-11-02T12:23:05.875Z,70.2
2018-11-02T12:24:05.631Z,69.59
2018-11-02T12:25:05.546Z,68.55
2018-11-02T12:26:05.678Z,68.99
2018-11-02T12:27:05.626Z,68.52
2018-11-02T12:28:05.901Z,69.11
2018-11-02T12:29:05.967Z,68.47
2018-11-02T12:30:05.668Z,65.42
2018-11-02T12:31:05.573Z,64.16
2018-11-02T12:32:06.552Z,64.52
2018-11-02T12:33:05.625Z,65.08
2018-11-02T12:34:05.563Z,65.61
2018-11-02T12:35:05.627Z,66.2
2018-11-02T12:36:05.599Z,66.77
2018-11-02T12:37:06.026Z,67.69
2018-11-02T12:38:05.696Z,67.05
2018-11-02T12:39:05.832Z,67.34
2018-11-02T12:40:05.690Z,67.23
2018-11-02T12:41:05.596Z,66.91
2018-11-02T12:42:06.609Z,67.08
2018-11-02T12:43:05.859Z,67.91
2018-11-02T12:44:05.755Z,67.15
2018-11-02T12:45:06.028Z,67.25
2018-11-02T12:46:05.823Z,67.17
2018-11-02T12:47:05.530Z,67.65
2018-11-02T12:48:06.759Z,68.47
2018-11-02T12:49:07.765Z,68.33
2018-11-02T12:50:06.108Z,69.28
2018-11-02T12:51:05.526Z,69.18
2018-11-02T12:52:06.586Z,68.41
2018-11-02T12:53:05.513Z,68.72
2018-11-02T12:54:05.734Z,68.69
2018-11-02T12:55:05.530Z,69.27